Wednesday, February 22, 2017, 12:26 PM EST

KDYL, Doylestown Airport

Location: Doylestown, PA, United States Lat: 40.333
Local Time: 12:26 PM EST (17:26 GMT) Lon: -75.117
Time Zone: US/Eastern Elev: 393 ft

Show me the last for .
Show Decoded

2017-02-22 11:54 METAR KDYL 221654Z AUTO 21004KT 10SM CLR 11/04 A2997 RMK AO2 SLP153 T01110039
                 TSNO =
2017-02-22 10:54 METAR KDYL 221554Z AUTO 00000KT 10SM CLR 09/04 A3001 RMK AO2 SLP164 T00940039
                 TSNO =
2017-02-22 09:54 METAR KDYL 221454Z AUTO 19003KT 10SM CLR 08/03 A3001 RMK AO2 SLP166 T00780033
                 58007 TSNO =
2017-02-22 08:54 METAR KDYL 221354Z AUTO 22003KT 10SM CLR 07/03 A3003 RMK AO2 SLP173 T00720028
                 TSNO =
2017-02-22 07:54 METAR KDYL 221254Z AUTO 21003KT 10SM FEW070 OVC090 06/02 A3004 RMK AO2 SLP176
                 T00610022 TSNO =
2017-02-22 06:54 METAR KDYL 221154Z AUTO 15004KT 10SM BKN090 OVC120 06/02 A3003 RMK AO2 SLP174
                 T00560022 10061 20044 58002 TSNO =
2017-02-22 05:54 METAR KDYL 221054Z AUTO 00000KT 10SM BKN090 05/02 A3004 RMK AO2 SLP176 T00500017
                 TSNO =
2017-02-22 04:54 METAR KDYL 220954Z AUTO 00000KT 10SM OVC090 05/02 A3004 RMK AO2 SLP177 T00500017
                 TSNO =
2017-02-21 15:54 METAR KDYL 212054Z AUTO 16005KT 10SM CLR 10/M02 A3018 RMK AO2 SLP225 T01001017
                 56028 TSNO =
2017-02-21 14:54 METAR KDYL 211954Z AUTO 18007KT 10SM CLR 10/M02 A3021 RMK AO2 SLP236 T01001022
                 TSNO =
2017-02-21 13:54 METAR KDYL 211854Z AUTO VRB06KT 10SM CLR 09/M02 A3023 RMK AO2 SLP240 T00941022
                 TSNO =
2017-02-21 12:54 METAR KDYL 211754Z AUTO 16007KT 10SM CLR 08/M03 A3027 RMK AO2 SLP253 T00831028
                 10089 21017 58024 TSNO =

Support USWX by starting your Amazon purchase here.